North Fortune — 3EVF5 — position and weather

sailwx.info

Track history (hours):
 
Tides and Currents Weather Stations Pressure Air Temp Water Temp Dewpoint Dewpoint Depression Visibility Wind Speed Wind Dir Waves Ship Positions

North Fortune

Last reported at 2017-Dec-07 01:00 UTC. Time now 2017-Dec-12 06:08 UTC.
Position S 13°54' E 152°30'.

Length 235 m; draft 12.9 m.

Type: Cargo ship. MMSI: 357083000.

Wind from 160 at 3 knots

Barometer 1007.1 mb
Air temperature 31.0 ° C
Visibility: greater than 10.8 NM
Dewpoint 25.7 ° C
Water temperature 32.0 ° C

Date/timePositionNaut miles runAvg speedWind from/ knotsBaromVisibWave heightAir tempDewpointWater temp
2017-Dec-07 01:00S 13°54' E 152°30'   160 / 31007.110.8 31.025.732.0
2017-Dec-04 01:51S 27°40' E 153°48'410.7
2017-Dec-04 01:30S 27°44' E 153°48'611.2
2017-Dec-04 01:00S 27°49' E 153°48'711.4
2017-Dec-04 00:22S 27°56' E 153°48'411.6
2017-Dec-04 00:00S 28°01' E 153°49'611.5
2017-Dec-03 23:30S 28°06' E 153°50'611.1
2017-Dec-03 23:00S 28°12' E 153°51'611.2
2017-Dec-03 22:30S 28°17' E 153°50'510.8
2017-Dec-03 22:00S 28°23' E 153°50'510.4
2017-Dec-03 21:30S 28°28' E 153°50'510.3
2017-Dec-03 21:00S 28°33' E 153°50'710.5
2017-Dec-03 20:22S 28°40' E 153°50'235 9.8
2017-Dec-02 20:31S 32°27' E 152°41'0 9.7
2017-Dec-02 20:30S 32°27' E 152°41'611.1
2017-Dec-02 20:00S 32°31' E 152°37'611.5
2017-Dec-02 19:30S 32°36' E 152°33'612.0
2017-Dec-02 19:00S 32°41' E 152°29'611.6
2017-Dec-02 18:30S 32°45' E 152°24'611.4
2017-Dec-02 18:01S 32°47' E 152°18'611.6
2017-Dec-02 17:30S 32°49' E 152°12'611.6
2017-Dec-02 17:00S 32°52' E 152°05'611.7
2017-Dec-02 16:30S 32°54' E 151°59'5 9.8
2017-Dec-02 16:00S 32°57' E 151°54'3 5.9
2017-Dec-02 15:30S 32°56' E 151°51'3 6.2
2017-Dec-02 15:00S 32°55' E 151°47'2 3.2
2017-Dec-02 14:29S 32°54' E 151°46'1 2.7
2017-Dec-02 14:00S 32°53' E 151°45'0 0.1
2017-Dec-02 13:30S 32°53' E 151°45'0 0.0
2017-Dec-02 12:40S 32°53' E 151°45'0 0.0
2017-Dec-02 08:16S 32°53' E 151°45'0 0.0
2017-Dec-02 07:58S 32°53' E 151°45'0 0.0
2017-Dec-02 07:07S 32°53' E 151°45'0 0.0
2017-Dec-02 06:31S 32°53' E 151°45'0 0.0
2017-Dec-02 06:19S 32°53' E 151°45'0 0.0
2017-Dec-02 03:25S 32°53' E 151°45'0 0.0
2017-Dec-01 21:19S 32°53' E 151°45'0 0.0
2017-Dec-01 20:55S 32°53' E 151°45'0 0.0
2017-Dec-01 20:25S 32°53' E 151°45'0 0.0
2017-Dec-01 19:55S 32°53' E 151°45'0 0.0
2017-Dec-01 19:13S 32°53' E 151°45'0 0.0
2017-Dec-01 18:55S 32°53' E 151°45'0 0.0
2017-Dec-01 18:28S 32°53' E 151°45'0 0.0
2017-Dec-01 17:49S 32°53' E 151°45'0 0.0
2017-Dec-01 17:25S 32°53' E 151°45'0 0.0
2017-Dec-01 16:55S 32°53' E 151°45'0 0.0
2017-Dec-01 16:25S 32°53' E 151°45'0 0.0
2017-Dec-01 15:07S 32°53' E 151°45'0 0.0
2017-Dec-01 13:04S 32°53' E 151°45'0 0.0
2017-Dec-01 11:59S 32°53' E 151°45'1 1.6
2017-Dec-01 11:30S 32°53' E 151°46'2 3.4
2017-Dec-01 11:00S 32°55' E 151°47'3 6.4
2017-Dec-01 10:30S 32°56' E 151°50'4 7.2
2017-Dec-01 10:00S 32°59' E 151°52'1 3.0
2017-Dec-01 09:30S 33°00' E 151°52'3 4.3
2017-Dec-01 08:48S 33°03' E 151°50'1 3.1
2017-Dec-01 08:29S 33°04' E 151°50'6 7.8
2017-Dec-01 07:43S 33°09' E 151°47'2 7.7
2017-Dec-01 07:27S 33°11' E 151°46'11 7.9
2017-Dec-01 06:02S 33°20' E 151°38'0 6.6
2017-Dec-01 05:59S 33°20' E 151°38'2 0.8
2017-Dec-01 03:26S 33°21' E 151°35'0 0.0
2017-Dec-01 02:50S 33°21' E 151°35'0 0.0
2017-Nov-30 18:59S 33°21' E 151°35'0 0.0
2017-Nov-30 18:29S 33°21' E 151°35'0 0.0
2017-Nov-30 17:59S 33°21' E 151°35'0 0.0
2017-Nov-30 17:29S 33°21' E 151°35'0 0.0
2017-Nov-30 16:44S 33°21' E 151°35'0 0.0
2017-Nov-30 16:11S 33°21' E 151°35'0 0.0
2017-Nov-30 15:53S 33°21' E 151°35'0 0.0
2017-Nov-30 15:29S 33°21' E 151°35'0 0.0
2017-Nov-30 14:44S 33°21' E 151°35'0 0.0
2017-Nov-30 14:29S 33°21' E 151°35'0 0.0
2017-Nov-30 13:59S 33°21' E 151°35'0 0.0
2017-Nov-30 13:05S 33°21' E 151°35'0 0.1
2017-Nov-30 12:59S 33°21' E 151°35'0 0.0
2017-Nov-30 11:59S 33°21' E 151°35'0 0.0
2017-Nov-30 11:29S 33°21' E 151°35'0 0.0
2017-Nov-30 10:53S 33°21' E 151°35'0 0.0
2017-Nov-30 10:05S 33°21' E 151°35'0 0.0
2017-Nov-30 09:50S 33°21' E 151°35'0 0.0
2017-Nov-29 19:29S 33°21' E 151°35'0 0.1
2017-Nov-29 18:39S 33°21' E 151°35'0 0.4
2017-Nov-29 18:27S 33°21' E 151°35'1 1.8
2017-Nov-29 17:57S 33°22' E 151°35'1 1.7
2017-Nov-29 17:30S 33°23' E 151°34'2 4.6
2017-Nov-29 17:01S 33°23' E 151°37'2 3.3
2017-Nov-29 16:30S 33°23' E 151°39'17 2.3
2017-Nov-29 09:14S 33°15' E 151°56'1 4.1
2017-Nov-29 08:55S 33°14' E 151°56'6 7.9
2017-Nov-29 08:13S 33°09' E 151°52'2 7.5
2017-Nov-29 08:00S 33°08' E 151°51'1 1.5
2017-Nov-29 07:31S 33°07' E 151°52'1 1.3
2017-Nov-29 07:00S 33°07' E 151°52'1 1.5
2017-Nov-29 06:30S 33°07' E 151°53'1 1.4
2017-Nov-29 06:01S 33°06' E 151°54'1 1.4
2017-Nov-29 05:30S 33°06' E 151°55'3 1.3
2017-Nov-29 02:55S 33°06' E 151°59'1 1.6
2017-Nov-29 02:30S 33°05' E 151°60'1 1.5
2017-Nov-29 02:00S 33°05' E 152°00'1 1.5
2017-Nov-29 01:31S 33°05' E 152°01'1 2.4
2017-Nov-29 01:00S 33°04' E 152°02'4 7.7
2017-Nov-29 00:31S 33°00' E 152°04'4 7.8
2017-Nov-29 00:01S 32°57' E 152°06'510.1
2017-Nov-28 23:31S 32°54' E 152°11'510.1
2017-Nov-28 23:01S 32°51' E 152°16'510.2
2017-Nov-28 22:31S 32°47' E 152°20'611.2
2017-Nov-28 22:01S 32°44' E 152°25'713.8
2017-Nov-28 21:30S 32°39' E 152°31'714.1
2017-Nov-28 21:00S 32°34' E 152°37'812.5
2017-Nov-28 20:20S 32°27' E 152°42'24311.6
2017-Nov-27 23:23S 28°31' E 153°47'410.1
2017-Nov-27 22:58S 28°27' E 153°47'510.4
2017-Nov-27 22:30S 28°22' E 153°47'510.4
2017-Nov-27 22:01S 28°17' E 153°47'510.3
2017-Nov-27 21:30S 28°11' E 153°48'510.4
2017-Nov-27 21:00S 28°06' E 153°48'612.5
2017-Nov-27 20:31S 27°60' E 153°48'713.1
2017-Nov-27 20:00S 27°53' E 153°47'713.1
2017-Nov-27 19:30S 27°47' E 153°46'713.2
2017-Nov-27 19:00S 27°40' E 153°45'913.4
2017-Nov-27 18:19S 27°31' E 153°45'413.1
2017-Nov-27 18:00S 27°27' E 153°45'613.2
2017-Nov-27 17:30S 27°20' E 153°44'813.6
2017-Nov-27 16:56S 27°13' E 153°43'713.7
2017-Nov-27 16:26S 27°06' E 153°42'  
Track history (hours):
 
Tides and Currents Weather Stations Pressure Air Temp Water Temp Dewpoint Dewpoint Depression Visibility Wind Speed Wind Dir Waves Ship Positions

North Fortune

Last reported at 2017-Dec-07 01:00 UTC. Time now 2017-Dec-12 06:08 UTC.
Position S 13°54' E 152°30'.

Length 235 m; draft 12.9 m.

Type: Cargo ship. MMSI: 357083000.

Wind from 160 at 3 knots

Barometer 1007.1 mb
Air temperature 31.0 ° C
Visibility: greater than 10.8 NM
Dewpoint 25.7 ° C
Water temperature 32.0 ° C

Date/timePositionNaut miles runAvg speedWind from/ knotsBaromVisibWave heightAir tempDewpointWater temp
2017-Dec-07 01:00S 13°54' E 152°30'   160 / 31007.110.8 31.025.732.0
2017-Dec-04 01:51S 27°40' E 153°48'410.7
2017-Dec-04 01:30S 27°44' E 153°48'611.2
2017-Dec-04 01:00S 27°49' E 153°48'711.4
2017-Dec-04 00:22S 27°56' E 153°48'411.6
2017-Dec-04 00:00S 28°01' E 153°49'611.5
2017-Dec-03 23:30S 28°06' E 153°50'611.1
2017-Dec-03 23:00S 28°12' E 153°51'611.2
2017-Dec-03 22:30S 28°17' E 153°50'510.8
2017-Dec-03 22:00S 28°23' E 153°50'510.4
2017-Dec-03 21:30S 28°28' E 153°50'510.3
2017-Dec-03 21:00S 28°33' E 153°50'710.5
2017-Dec-03 20:22S 28°40' E 153°50'235 9.8
2017-Dec-02 20:31S 32°27' E 152°41'0 9.7
2017-Dec-02 20:30S 32°27' E 152°41'611.1
2017-Dec-02 20:00S 32°31' E 152°37'611.5
2017-Dec-02 19:30S 32°36' E 152°33'612.0
2017-Dec-02 19:00S 32°41' E 152°29'611.6
2017-Dec-02 18:30S 32°45' E 152°24'611.4
2017-Dec-02 18:01S 32°47' E 152°18'611.6
2017-Dec-02 17:30S 32°49' E 152°12'611.6
2017-Dec-02 17:00S 32°52' E 152°05'611.7
2017-Dec-02 16:30S 32°54' E 151°59'5 9.8
2017-Dec-02 16:00S 32°57' E 151°54'3 5.9
2017-Dec-02 15:30S 32°56' E 151°51'3 6.2
2017-Dec-02 15:00S 32°55' E 151°47'2 3.2
2017-Dec-02 14:29S 32°54' E 151°46'1 2.7
2017-Dec-02 14:00S 32°53' E 151°45'0 0.1
2017-Dec-02 13:30S 32°53' E 151°45'0 0.0
2017-Dec-02 12:40S 32°53' E 151°45'0 0.0
2017-Dec-02 08:16S 32°53' E 151°45'0 0.0
2017-Dec-02 07:58S 32°53' E 151°45'0 0.0
2017-Dec-02 07:07S 32°53' E 151°45'0 0.0
2017-Dec-02 06:31S 32°53' E 151°45'0 0.0
2017-Dec-02 06:19S 32°53' E 151°45'0 0.0
2017-Dec-02 03:25S 32°53' E 151°45'0 0.0
2017-Dec-01 21:19S 32°53' E 151°45'0 0.0
2017-Dec-01 20:55S 32°53' E 151°45'0 0.0
2017-Dec-01 20:25S 32°53' E 151°45'0 0.0
2017-Dec-01 19:55S 32°53' E 151°45'0 0.0
2017-Dec-01 19:13S 32°53' E 151°45'0 0.0
2017-Dec-01 18:55S 32°53' E 151°45'0 0.0
2017-Dec-01 18:28S 32°53' E 151°45'0 0.0
2017-Dec-01 17:49S 32°53' E 151°45'0 0.0
2017-Dec-01 17:25S 32°53' E 151°45'0 0.0
2017-Dec-01 16:55S 32°53' E 151°45'0 0.0
2017-Dec-01 16:25S 32°53' E 151°45'0 0.0
2017-Dec-01 15:07S 32°53' E 151°45'0 0.0
2017-Dec-01 13:04S 32°53' E 151°45'0 0.0
2017-Dec-01 11:59S 32°53' E 151°45'1 1.6
2017-Dec-01 11:30S 32°53' E 151°46'2 3.4
2017-Dec-01 11:00S 32°55' E 151°47'3 6.4
2017-Dec-01 10:30S 32°56' E 151°50'4 7.2
2017-Dec-01 10:00S 32°59' E 151°52'1 3.0
2017-Dec-01 09:30S 33°00' E 151°52'3 4.3
2017-Dec-01 08:48S 33°03' E 151°50'1 3.1
2017-Dec-01 08:29S 33°04' E 151°50'6 7.8
2017-Dec-01 07:43S 33°09' E 151°47'2 7.7
2017-Dec-01 07:27S 33°11' E 151°46'11 7.9
2017-Dec-01 06:02S 33°20' E 151°38'0 6.6
2017-Dec-01 05:59S 33°20' E 151°38'2 0.8
2017-Dec-01 03:26S 33°21' E 151°35'0 0.0
2017-Dec-01 02:50S 33°21' E 151°35'0 0.0
2017-Nov-30 18:59S 33°21' E 151°35'0 0.0
2017-Nov-30 18:29S 33°21' E 151°35'0 0.0
2017-Nov-30 17:59S 33°21' E 151°35'0 0.0
2017-Nov-30 17:29S 33°21' E 151°35'0 0.0
2017-Nov-30 16:44S 33°21' E 151°35'0 0.0
2017-Nov-30 16:11S 33°21' E 151°35'0 0.0
2017-Nov-30 15:53S 33°21' E 151°35'0 0.0
2017-Nov-30 15:29S 33°21' E 151°35'0 0.0
2017-Nov-30 14:44S 33°21' E 151°35'0 0.0
2017-Nov-30 14:29S 33°21' E 151°35'0 0.0
2017-Nov-30 13:59S 33°21' E 151°35'0 0.0
2017-Nov-30 13:05S 33°21' E 151°35'0 0.1
2017-Nov-30 12:59S 33°21' E 151°35'0 0.0
2017-Nov-30 11:59S 33°21' E 151°35'0 0.0
2017-Nov-30 11:29S 33°21' E 151°35'0 0.0
2017-Nov-30 10:53S 33°21' E 151°35'0 0.0
2017-Nov-30 10:05S 33°21' E 151°35'0 0.0
2017-Nov-30 09:50S 33°21' E 151°35'0 0.0
2017-Nov-29 19:29S 33°21' E 151°35'0 0.1
2017-Nov-29 18:39S 33°21' E 151°35'0 0.4
2017-Nov-29 18:27S 33°21' E 151°35'1 1.8
2017-Nov-29 17:57S 33°22' E 151°35'1 1.7
2017-Nov-29 17:30S 33°23' E 151°34'2 4.6
2017-Nov-29 17:01S 33°23' E 151°37'2 3.3
2017-Nov-29 16:30S 33°23' E 151°39'17 2.3
2017-Nov-29 09:14S 33°15' E 151°56'1 4.1
2017-Nov-29 08:55S 33°14' E 151°56'6 7.9
2017-Nov-29 08:13S 33°09' E 151°52'2 7.5
2017-Nov-29 08:00S 33°08' E 151°51'1 1.5
2017-Nov-29 07:31S 33°07' E 151°52'1 1.3
2017-Nov-29 07:00S 33°07' E 151°52'1 1.5
2017-Nov-29 06:30S 33°07' E 151°53'1 1.4
2017-Nov-29 06:01S 33°06' E 151°54'1 1.4
2017-Nov-29 05:30S 33°06' E 151°55'3 1.3
2017-Nov-29 02:55S 33°06' E 151°59'1 1.6
2017-Nov-29 02:30S 33°05' E 151°60'1 1.5
2017-Nov-29 02:00S 33°05' E 152°00'1 1.5
2017-Nov-29 01:31S 33°05' E 152°01'1 2.4
2017-Nov-29 01:00S 33°04' E 152°02'4 7.7
2017-Nov-29 00:31S 33°00' E 152°04'4 7.8
2017-Nov-29 00:01S 32°57' E 152°06'510.1
2017-Nov-28 23:31S 32°54' E 152°11'510.1
2017-Nov-28 23:01S 32°51' E 152°16'510.2
2017-Nov-28 22:31S 32°47' E 152°20'611.2
2017-Nov-28 22:01S 32°44' E 152°25'713.8
2017-Nov-28 21:30S 32°39' E 152°31'714.1
2017-Nov-28 21:00S 32°34' E 152°37'812.5
2017-Nov-28 20:20S 32°27' E 152°42'24311.6
2017-Nov-27 23:23S 28°31' E 153°47'410.1
2017-Nov-27 22:58S 28°27' E 153°47'510.4
2017-Nov-27 22:30S 28°22' E 153°47'510.4
2017-Nov-27 22:01S 28°17' E 153°47'510.3
2017-Nov-27 21:30S 28°11' E 153°48'510.4
2017-Nov-27 21:00S 28°06' E 153°48'612.5
2017-Nov-27 20:31S 27°60' E 153°48'713.1
2017-Nov-27 20:00S 27°53' E 153°47'713.1
2017-Nov-27 19:30S 27°47' E 153°46'713.2
2017-Nov-27 19:00S 27°40' E 153°45'913.4
2017-Nov-27 18:19S 27°31' E 153°45'413.1
2017-Nov-27 18:00S 27°27' E 153°45'613.2
2017-Nov-27 17:30S 27°20' E 153°44'813.6
2017-Nov-27 16:56S 27°13' E 153°43'713.7
2017-Nov-27 16:26S 27°06' E 153°42'  

Dump ship's entire track history